createdAt,value
2019-03-25T00:02:24.173Z,70.80
2019-03-25T00:05:11.072Z,65.43
2019-03-25T00:07:38.245Z,67.30
2019-03-25T00:10:06.174Z,69.60
2019-03-25T00:12:33.390Z,66.70
2019-03-25T00:15:00.537Z,68.30
2019-03-25T00:17:27.755Z,67.40
2019-03-25T00:19:54.912Z,71.93
2019-03-25T00:22:22.113Z,72.07
2019-03-25T00:24:49.293Z,71.97
2019-03-25T00:27:16.536Z,67.67
2019-03-25T00:29:43.692Z,66.10
2019-03-25T00:32:10.953Z,67.50
2019-03-25T00:34:38.137Z,71.77
2019-03-25T00:37:05.393Z,66.33
2019-03-25T00:39:32.533Z,70.23
2019-03-25T00:41:59.713Z,71.80
2019-03-25T00:44:26.892Z,66.33
2019-03-25T00:46:54.072Z,70.07
2019-03-25T00:49:21.495Z,72.67
2019-03-25T00:51:48.659Z,65.10
2019-03-25T00:54:15.869Z,66.80
2019-03-25T00:56:43.013Z,70.60
2019-03-25T00:59:10.212Z,69.60
2019-03-25T01:01:37.313Z,73.33
2019-03-25T01:04:04.753Z,67.57
2019-03-25T01:06:31.932Z,71.60
2019-03-25T01:08:59.087Z,72.37
2019-03-25T01:11:26.353Z,75.37
2019-03-25T01:13:53.593Z,69.70
2019-03-25T01:16:20.746Z,71.83
2019-03-25T01:18:47.961Z,74.17
2019-03-25T01:21:34.815Z,73.63
2019-03-25T01:24:02.015Z,78.40
2019-03-25T01:26:29.133Z,76.33
2019-03-25T01:28:56.441Z,77.57
2019-03-25T01:31:23.616Z,81.10
2019-03-25T01:33:50.812Z,77.80
2019-03-25T01:36:17.992Z,78.50
2019-03-25T01:38:45.132Z,78.93
2019-03-25T01:41:12.331Z,77.03
2019-03-25T01:43:39.532Z,78.70
2019-03-25T01:46:06.692Z,79.63
2019-03-25T01:48:34.261Z,79.00
2019-03-25T01:51:01.393Z,80.93
2019-03-25T01:53:28.584Z,81.23
2019-03-25T01:55:55.792Z,78.80
2019-03-25T01:58:22.953Z,83.17
2019-03-25T02:00:50.152Z,78.97
2019-03-25T02:03:17.333Z,84.63
2019-03-25T02:05:44.533Z,80.37
2019-03-25T02:08:11.632Z,83.60
2019-03-25T02:10:38.812Z,83.57
2019-03-25T02:13:05.953Z,82.43
2019-03-25T02:15:33.133Z,87.43
2019-03-25T02:18:00.237Z,79.43
2019-03-25T02:20:28.012Z,87.70
2019-03-25T02:22:55.772Z,79.80
2019-03-25T02:25:29.893Z,82.83
2019-03-25T02:27:57.200Z,88.03
2019-03-25T02:30:24.681Z,83.47
2019-03-25T02:32:51.896Z,83.47
2019-03-25T02:35:19.114Z,83.93
2019-03-25T02:37:46.296Z,84.03
2019-03-25T02:40:13.534Z,88.27
2019-03-25T02:42:40.656Z,88.10
2019-03-25T02:45:08.355Z,86.13
2019-03-25T02:47:35.580Z,83.23
2019-03-25T02:50:04.561Z,86.63
2019-03-25T02:52:31.694Z,84.57
2019-03-25T02:54:58.934Z,81.63
2019-03-25T02:57:26.068Z,87.60
2019-03-25T02:59:53.202Z,85.87
2019-03-25T03:02:20.573Z,83.90
2019-03-25T03:04:47.688Z,84.20
2019-03-25T03:07:14.920Z,84.00
2019-03-25T03:09:42.117Z,84.07
2019-03-25T03:12:09.353Z,82.27
2019-03-25T03:14:36.479Z,83.33
2019-03-25T03:17:03.753Z,85.53
2019-03-25T03:19:30.897Z,83.30
2019-03-25T03:21:58.095Z,89.97
2019-03-25T03:24:25.274Z,88.60
2019-03-25T03:26:52.494Z,90.73
2019-03-25T03:29:19.654Z,83.07
2019-03-25T03:31:46.873Z,89.07
2019-03-25T03:34:14.495Z,92.43
2019-03-25T03:36:41.692Z,88.63
2019-03-25T03:39:08.854Z,86.77
2019-03-25T03:41:36.311Z,86.13
2019-03-25T03:44:03.655Z,93.70
2019-03-25T03:46:30.836Z,92.43
2019-03-25T03:48:58.034Z,86.63
2019-03-25T03:51:25.323Z,90.70
2019-03-25T03:53:52.575Z,91.00
2019-03-25T03:56:20.118Z,92.30
2019-03-25T03:58:47.773Z,85.97
2019-03-25T04:01:14.965Z,88.57
2019-03-25T04:03:42.153Z,96.53
2019-03-25T04:06:09.314Z,96.23
2019-03-25T04:08:36.519Z,94.67
2019-03-25T04:11:03.663Z,93.33
2019-03-25T04:13:30.873Z,93.73
2019-03-25T04:16:01.181Z,88.93
2019-03-25T04:18:27.294Z,91.27
2019-03-25T04:20:54.473Z,92.70
2019-03-25T04:23:21.694Z,89.53
2019-03-25T04:25:48.814Z,88.43
2019-03-25T04:28:16.298Z,87.03
2019-03-25T04:30:43.435Z,89.20
2019-03-25T04:33:10.613Z,87.77
2019-03-25T04:35:37.714Z,85.53
2019-03-25T04:38:05.034Z,94.13
2019-03-25T04:40:32.215Z,93.47
2019-03-25T04:42:59.476Z,91.30
2019-03-25T04:45:26.632Z,89.00
2019-03-25T04:47:53.813Z,91.10
2019-03-25T04:50:20.971Z,84.33
2019-03-25T04:52:48.189Z,94.80
2019-03-25T04:55:15.313Z,89.27
2019-03-25T04:57:42.471Z,92.23
2019-03-25T05:00:10.973Z,91.97
2019-03-25T05:02:38.173Z,86.80
2019-03-25T05:05:08.053Z,85.23
2019-03-25T05:07:35.318Z,90.37
2019-03-25T05:10:05.295Z,86.33
2019-03-25T05:12:32.482Z,88.47
2019-03-25T05:15:09.212Z,89.90
2019-03-25T05:17:40.732Z,87.37
2019-03-25T05:20:11.652Z,88.67
2019-03-25T05:22:46.112Z,84.03
2019-03-25T05:25:16.233Z,84.53
2019-03-25T05:27:49.694Z,87.80
2019-03-25T05:30:22.996Z,86.20
2019-03-25T05:32:58.511Z,87.53
2019-03-25T05:35:29.216Z,89.77
2019-03-25T05:38:01.172Z,85.97
2019-03-25T05:40:33.712Z,89.57
2019-03-25T05:43:06.532Z,86.17
2019-03-25T05:45:38.874Z,89.57
2019-03-25T05:48:09.940Z,92.23
2019-03-25T05:50:46.837Z,88.97
2019-03-25T05:53:20.853Z,85.87
2019-03-25T05:55:57.993Z,93.40
2019-03-25T05:58:31.928Z,90.20
2019-03-25T06:01:04.793Z,88.47
2019-03-25T06:03:35.533Z,88.37
2019-03-25T06:06:06.457Z,85.50
2019-03-25T06:08:42.033Z,91.30
2019-03-25T06:11:13.873Z,94.03
2019-03-25T06:13:44.380Z,90.87
2019-03-25T06:16:18.092Z,86.03
2019-03-25T06:18:50.253Z,89.83
2019-03-25T06:21:26.438Z,90.03
2019-03-25T06:24:01.693Z,93.93
2019-03-25T06:26:34.194Z,98.17
2019-03-25T06:29:09.213Z,97.37
2019-03-25T06:31:42.197Z,96.47
2019-03-25T06:34:19.249Z,91.37
2019-03-25T06:36:52.113Z,89.70
2019-03-25T06:39:22.474Z,92.10
2019-03-25T06:41:56.202Z,91.07
2019-03-25T06:44:27.200Z,96.70
2019-03-25T06:47:00.796Z,88.90
2019-03-25T06:49:35.309Z,94.67
2019-03-25T06:52:09.823Z,91.37
2019-03-25T07:36:55.072Z,93.00
2019-03-25T07:39:22.292Z,91.30
2019-03-25T07:41:49.492Z,81.63
2019-03-25T07:44:16.699Z,82.50
2019-03-25T07:46:44.073Z,79.57
2019-03-25T07:49:11.333Z,76.93
2019-03-25T07:51:41.798Z,82.53
2019-03-25T07:54:08.998Z,86.90
2019-03-25T07:56:36.896Z,77.73
2019-03-25T07:59:04.177Z,83.53
2019-03-25T08:01:31.733Z,77.80
2019-03-25T08:03:58.872Z,78.13
2019-03-25T08:06:26.183Z,76.90
2019-03-25T08:09:03.327Z,76.03
2019-03-25T08:11:22.753Z,63.70
2019-03-25T08:13:49.946Z,71.07
2019-03-25T08:16:17.229Z,58.77
2019-03-25T08:18:44.596Z,55.90
2019-03-25T08:21:13.213Z,55.27
2019-03-25T08:23:40.376Z,57.80
2019-03-25T08:26:07.633Z,57.27
2019-03-25T08:28:35.994Z,56.93
2019-03-25T08:31:03.494Z,56.17
2019-03-25T08:33:30.813Z,57.50
2019-03-25T08:35:57.973Z,61.67
2019-03-25T08:38:25.294Z,59.30
2019-03-25T08:40:52.593Z,60.17
2019-03-25T08:43:19.796Z,55.50
2019-03-25T08:45:46.953Z,56.60
2019-03-25T08:48:14.142Z,52.70
2019-03-25T08:50:41.313Z,50.53
2019-03-25T08:53:08.513Z,49.03
2019-03-25T08:55:35.833Z,48.83
2019-03-25T08:58:11.896Z,49.67
2019-03-25T09:00:32.296Z,50.33
2019-03-25T09:03:05.605Z,51.37
2019-03-25T09:05:39.853Z,46.07
2019-03-25T09:08:14.872Z,41.63
2019-03-25T09:10:50.972Z,39.53
2019-03-25T09:13:24.055Z,32.80
2019-03-25T09:16:01.837Z,29.17
2019-03-25T09:18:35.273Z,34.63
2019-03-25T09:21:09.035Z,27.07
2019-03-25T09:23:43.016Z,29.17
2019-03-25T09:26:18.253Z,22.97
2019-03-25T09:28:53.513Z,23.27
2019-03-25T09:31:36.414Z,19.23
2019-03-25T09:34:05.690Z,23.70
2019-03-25T09:36:41.809Z,20.23
2019-03-25T09:39:18.738Z,18.47
2019-03-25T09:41:53.780Z,22.40
2019-03-25T09:44:28.615Z,19.73
2019-03-25T09:47:05.878Z,18.37
2019-03-25T09:49:40.738Z,19.93
2019-03-25T09:52:15.978Z,16.93
2019-03-25T09:54:48.758Z,21.17
2019-03-25T09:57:23.997Z,15.97
2019-03-25T09:59:56.137Z,18.77
2019-03-25T10:02:30.258Z,16.67
2019-03-25T10:05:03.978Z,16.90
2019-03-25T10:07:41.318Z,20.37
2019-03-25T10:10:16.120Z,17.77
2019-03-25T10:12:52.180Z,18.20
2019-03-25T10:15:28.537Z,17.93
2019-03-25T10:18:05.498Z,15.03
2019-03-25T10:20:41.578Z,16.17
2019-03-25T10:23:16.618Z,15.93
2019-03-25T10:25:51.610Z,13.50
2019-03-25T10:28:25.619Z,15.93
2019-03-25T10:31:01.758Z,13.33
2019-03-25T10:33:35.696Z,12.80
2019-03-25T10:36:10.519Z,16.77
2019-03-25T10:38:45.932Z,11.77
2019-03-25T10:41:22.890Z,13.27
2019-03-25T10:43:59.931Z,18.43
2019-03-25T10:46:35.155Z,10.13
2019-03-25T10:49:10.012Z,16.07
2019-03-25T10:51:42.770Z,14.60
2019-03-25T10:54:17.149Z,13.93
2019-03-25T10:56:50.789Z,14.23
2019-03-25T10:59:27.670Z,12.63
2019-03-25T11:02:02.288Z,14.43
2019-03-25T11:04:38.150Z,14.37
2019-03-25T11:07:14.262Z,12.77
2019-03-25T11:09:50.349Z,9.33
2019-03-25T11:12:29.209Z,12.23
2019-03-25T11:15:03.410Z,10.43
2019-03-25T11:17:38.039Z,10.47
2019-03-25T11:20:13.457Z,9.33
2019-03-25T11:22:47.282Z,11.40
2019-03-25T11:25:23.326Z,5.90
2019-03-25T11:27:59.667Z,9.07
2019-03-25T11:30:56.727Z,7.03
2019-03-25T11:33:31.592Z,9.37
2019-03-25T11:36:04.767Z,6.50
2019-03-25T11:38:39.627Z,7.53
2019-03-25T11:41:15.648Z,8.10
2019-03-25T11:43:48.847Z,8.00
2019-03-25T11:46:27.768Z,8.77
2019-03-25T11:49:03.028Z,7.60
2019-03-25T11:51:37.027Z,8.43
2019-03-25T11:54:10.167Z,6.97
2019-03-25T11:56:45.227Z,7.13
2019-03-25T11:59:20.368Z,5.83
2019-03-25T12:01:59.390Z,9.80
2019-03-25T12:04:36.393Z,9.37
2019-03-25T12:07:10.457Z,5.70
2019-03-25T12:09:43.288Z,8.67
2019-03-25T12:12:19.354Z,7.30
2019-03-25T12:14:52.668Z,6.67
2019-03-25T12:17:31.768Z,8.10
2019-03-25T12:20:08.727Z,7.80
2019-03-25T12:22:43.840Z,6.10
2019-03-25T12:25:17.827Z,6.57
2019-03-25T12:27:53.654Z,6.67
2019-03-25T12:30:31.907Z,5.97
2019-03-25T12:33:08.966Z,7.13
2019-03-25T12:35:42.629Z,8.03
2019-03-25T12:38:20.947Z,5.50
2019-03-25T12:40:55.168Z,5.63
2019-03-25T12:43:34.948Z,4.13
2019-03-25T12:46:06.847Z,5.33
2019-03-25T12:48:41.729Z,4.77
2019-03-25T12:51:16.008Z,5.47
2019-03-25T12:53:52.928Z,4.40
2019-03-25T12:56:29.947Z,5.90
2019-03-25T12:59:02.669Z,4.63
2019-03-25T13:01:36.889Z,6.73
2019-03-25T13:04:09.855Z,4.43
2019-03-25T13:06:43.856Z,3.47
2019-03-25T13:09:16.847Z,3.67
2019-03-25T13:11:50.668Z,4.37
2019-03-25T13:14:26.848Z,3.93
2019-03-25T13:17:02.816Z,4.33
2019-03-25T13:19:34.724Z,6.00
2019-03-25T13:22:08.727Z,5.60
2019-03-25T13:24:41.531Z,7.20
2019-03-25T13:27:15.701Z,5.80
2019-03-25T13:29:52.838Z,5.70
2019-03-25T13:32:26.408Z,6.90
2019-03-25T13:35:01.690Z,6.97
2019-03-25T13:37:36.668Z,5.80
2019-03-25T13:40:12.568Z,6.07
2019-03-25T13:42:46.708Z,7.23
2019-03-25T13:45:20.589Z,7.53
2019-03-25T13:47:55.628Z,5.93
2019-03-25T13:50:31.647Z,6.13
2019-03-25T13:53:07.647Z,7.23
2019-03-25T13:55:44.388Z,5.77
2019-03-25T13:58:18.748Z,6.43
2019-03-25T14:00:55.692Z,9.10
2019-03-25T14:03:37.767Z,5.90
2019-03-25T14:06:15.767Z,7.93
2019-03-25T14:08:55.864Z,8.13
2019-03-25T14:11:31.392Z,6.47
2019-03-25T14:14:07.449Z,3.53
2019-03-25T14:16:43.488Z,5.17
2019-03-25T14:19:17.866Z,3.87
2019-03-25T14:21:52.747Z,4.10
2019-03-25T14:24:26.771Z,4.70
2019-03-25T14:27:02.888Z,2.63
2019-03-25T14:32:13.928Z,4.17
2019-03-25T14:34:55.976Z,3.43
2019-03-25T14:37:32.008Z,8.70
2019-03-25T14:40:05.988Z,3.57
2019-03-25T14:42:38.747Z,2.67
2019-03-25T14:45:14.135Z,5.77
2019-03-25T14:47:48.008Z,6.27
2019-03-25T14:50:24.470Z,4.53
2019-03-25T14:52:58.889Z,4.87
2019-03-25T14:55:33.310Z,4.20
2019-03-25T14:58:06.136Z,2.37
2019-03-25T15:00:39.472Z,2.67
2019-03-25T15:03:15.622Z,6.10
2019-03-25T15:05:48.640Z,2.87
2019-03-25T15:08:22.735Z,6.57
2019-03-25T15:11:00.843Z,3.27
2019-03-25T15:13:35.671Z,5.07
2019-03-25T15:16:15.825Z,4.20
2019-03-25T15:18:49.263Z,4.73
2019-03-25T15:21:28.384Z,7.33
2019-03-25T15:24:02.526Z,7.30
2019-03-25T15:26:36.656Z,5.93
2019-03-25T15:29:09.559Z,6.97
2019-03-25T15:31:45.642Z,6.00
2019-03-25T15:34:21.677Z,6.03
2019-03-25T15:36:56.928Z,8.50
2019-03-25T15:39:34.207Z,5.47
2019-03-25T15:42:09.414Z,5.47
2019-03-25T15:44:44.439Z,4.97
2019-03-25T15:47:21.289Z,5.40
2019-03-25T15:49:55.578Z,4.30
2019-03-25T15:52:27.514Z,5.37
2019-03-25T15:55:01.569Z,5.47
2019-03-25T15:57:39.795Z,5.37
2019-03-25T16:00:20.618Z,4.17
2019-03-25T16:02:52.935Z,3.57
2019-03-25T16:05:32.015Z,3.30
2019-03-25T16:08:05.096Z,3.63
2019-03-25T16:10:39.926Z,4.10
2019-03-25T16:13:15.280Z,4.10
2019-03-25T16:15:52.384Z,4.73
2019-03-25T16:18:39.995Z,4.87
2019-03-25T16:21:15.224Z,4.50
2019-03-25T16:23:49.649Z,4.20
2019-03-25T16:26:23.715Z,3.63
2019-03-25T16:28:58.474Z,3.83
2019-03-25T16:31:32.875Z,4.80
2019-03-25T16:34:07.726Z,4.10
2019-03-25T16:36:43.788Z,4.50
2019-03-25T16:39:19.142Z,3.53
2019-03-25T16:41:54.256Z,5.73
2019-03-25T16:44:29.438Z,3.43
2019-03-25T16:47:05.435Z,4.27
2019-03-25T16:49:38.336Z,3.90
2019-03-25T16:52:15.723Z,4.10
2019-03-25T16:54:53.815Z,4.47
2019-03-25T16:57:29.942Z,5.37
2019-03-25T17:00:05.023Z,6.80
2019-03-25T17:02:43.142Z,4.10
2019-03-25T17:05:17.142Z,5.63
2019-03-25T17:07:52.466Z,4.70
2019-03-25T17:10:27.221Z,5.60
2019-03-25T17:13:02.703Z,4.97
2019-03-25T17:15:36.462Z,5.90
2019-03-25T17:18:12.921Z,6.27
2019-03-25T17:20:48.157Z,5.60
2019-03-25T17:23:24.359Z,5.57
2019-03-25T17:26:00.443Z,6.30
2019-03-25T17:28:36.369Z,7.93
2019-03-25T17:31:20.583Z,7.13
2019-03-25T17:33:47.643Z,6.93
2019-03-25T17:36:20.826Z,4.77
2019-03-25T17:38:54.031Z,4.90
2019-03-25T17:41:28.445Z,3.60
2019-03-25T17:44:03.707Z,3.93
2019-03-25T17:46:37.273Z,3.37
2019-03-25T17:49:10.025Z,3.97
2019-03-25T17:51:46.965Z,4.50
2019-03-25T17:54:20.388Z,4.33
2019-03-25T17:56:54.567Z,4.27
2019-03-25T17:59:26.805Z,2.80
2019-03-25T18:01:59.906Z,5.20
2019-03-25T18:04:35.086Z,3.43
2019-03-25T18:07:10.166Z,3.93
2019-03-25T18:09:43.465Z,4.13
2019-03-25T18:12:17.593Z,4.53
2019-03-25T18:17:24.574Z,3.37
2019-03-25T18:20:01.145Z,6.60
2019-03-25T18:22:39.538Z,3.60
2019-03-25T18:25:12.351Z,3.50
2019-03-25T18:27:46.545Z,3.53
2019-03-25T18:33:04.209Z,3.20
2019-03-25T18:35:43.565Z,4.73
2019-03-25T18:38:17.125Z,6.00
2019-03-25T18:40:50.319Z,9.13
2019-03-25T18:43:27.206Z,4.87
2019-03-25T18:46:02.659Z,4.50
2019-03-25T18:48:39.900Z,4.93
2019-03-25T18:51:16.013Z,5.30
2019-03-25T18:53:50.203Z,3.77
2019-03-25T18:56:26.291Z,3.83
2019-03-25T18:59:00.264Z,4.00
2019-03-25T19:01:34.702Z,5.37
2019-03-25T19:04:08.697Z,5.50
2019-03-25T19:06:45.990Z,4.00
2019-03-25T19:09:20.061Z,5.23
2019-03-25T19:11:55.250Z,4.20
2019-03-25T19:14:29.638Z,5.20
2019-03-25T19:17:05.847Z,6.40
2019-03-25T19:19:41.041Z,6.20
2019-03-25T19:22:19.158Z,5.07
2019-03-25T19:24:54.428Z,7.43
2019-03-25T19:27:28.296Z,5.00
2019-03-25T19:30:02.760Z,6.57
2019-03-25T19:32:39.598Z,6.67
2019-03-25T19:35:14.045Z,7.00
2019-03-25T19:37:54.258Z,6.30
2019-03-25T19:40:31.060Z,7.93
2019-03-25T19:43:07.543Z,8.53
2019-03-25T19:45:43.642Z,7.07
2019-03-25T19:48:21.861Z,7.37
2019-03-25T19:50:57.736Z,8.30
2019-03-25T19:53:31.125Z,10.40
2019-03-25T19:56:07.021Z,7.30
2019-03-25T19:58:42.231Z,9.33
2019-03-25T20:01:15.592Z,8.60
2019-03-25T20:03:50.710Z,6.70
2019-03-25T20:06:29.830Z,6.67
2019-03-25T20:09:02.957Z,7.57
2019-03-25T20:11:39.683Z,7.97
2019-03-25T20:14:13.305Z,6.13
2019-03-25T20:16:49.481Z,8.00
2019-03-25T20:19:25.388Z,10.27
2019-03-25T20:21:58.550Z,5.90
2019-03-25T20:24:35.906Z,4.30
2019-03-25T20:27:09.007Z,3.33
2019-03-25T20:29:45.895Z,2.73
2019-03-25T20:32:31.237Z,3.50
2019-03-25T20:34:58.447Z,2.20
2019-03-25T20:37:33.668Z,2.27
2019-03-25T20:40:08.909Z,2.23
2019-03-25T20:42:42.160Z,2.47
2019-03-25T20:45:18.670Z,2.27
2019-03-25T20:47:54.207Z,3.23
2019-03-25T20:50:28.684Z,2.67
2019-03-25T20:53:02.909Z,3.40
2019-03-25T20:55:42.852Z,2.27
2019-03-25T20:58:22.292Z,3.00
2019-03-25T21:01:00.414Z,2.10
2019-03-25T21:03:35.636Z,2.37
2019-03-25T21:06:13.677Z,2.17
2019-03-25T21:08:51.992Z,2.70
2019-03-25T21:11:25.129Z,2.57
2019-03-25T21:13:59.336Z,3.20
2019-03-25T21:16:33.595Z,2.50
2019-03-25T21:19:06.715Z,2.87
2019-03-25T21:21:42.894Z,2.60
2019-03-25T21:24:20.057Z,2.57
2019-03-25T21:26:54.104Z,3.03
2019-03-25T21:29:30.184Z,3.10
2019-03-25T21:32:04.569Z,3.10
2019-03-25T21:34:40.857Z,3.57
2019-03-25T21:37:17.966Z,3.60
2019-03-25T21:39:59.085Z,3.73
2019-03-25T21:42:36.197Z,3.50
2019-03-25T21:45:13.078Z,4.27
2019-03-25T21:47:50.604Z,7.60
2019-03-25T21:50:28.516Z,5.33
2019-03-25T21:53:01.917Z,4.93
2019-03-25T21:55:36.836Z,4.53
2019-03-25T21:58:12.877Z,4.90
2019-03-25T22:00:52.408Z,4.77
2019-03-25T22:03:25.396Z,5.57
2019-03-25T22:06:00.235Z,5.30
2019-03-25T22:08:33.714Z,5.80
2019-03-25T22:11:08.874Z,5.97
2019-03-25T22:13:44.716Z,5.80
2019-03-25T22:16:18.074Z,6.67
2019-03-25T22:18:53.165Z,5.43
2019-03-25T22:21:26.355Z,6.17
2019-03-25T22:24:00.459Z,5.87
2019-03-25T22:26:34.597Z,5.90
2019-03-25T22:29:13.796Z,6.53
2019-03-25T22:31:45.678Z,6.03
2019-03-25T22:34:22.996Z,7.40
2019-03-25T22:36:57.156Z,7.67
2019-03-25T22:39:33.003Z,6.97
2019-03-25T22:42:09.420Z,6.97
2019-03-25T22:44:43.497Z,8.77
2019-03-25T22:47:18.356Z,7.50
2019-03-25T22:49:52.742Z,8.23
2019-03-25T22:52:26.937Z,8.73
